Time;durP1;ratioP1;P1;durP2;ratioP2;P2;SDS_P1;SDS_P2;PMS_P1;PMS_P2;Temp;Humidity;BMP_temperature;BMP_pressure;BME280_temperature;BME280_humidity;BME280_pressure;Samples;Min_cycle;Max_cycle;Signal;HPM_P1;HPM_P2
2022/06/22 03:40:56;;;;;;;21.77;20.47;;;21.40;99.90;;;;;;5159039;22;20532;-76
2022/06/22 03:43:29;;;;;;;20.93;19.73;;;21.30;99.90;;;;;;5014147;28;20438;-75
2022/06/22 03:46:01;;;;;;;21.63;20.30;;;21.30;99.90;;;;;;5013992;28;20485;-75
2022/06/22 03:48:31;;;;;;;21.63;20.23;;;21.20;99.90;;;;;;5014167;28;20457;-75
2022/06/22 03:51:04;;;;;;;22.30;21.00;;;21.20;99.90;;;;;;5014001;28;20934;-75
2022/06/22 03:53:38;;;;;;;21.33;20.03;;;21.20;99.90;;;;;;5013884;28;20446;-75
2022/06/22 03:56:10;;;;;;;20.70;19.60;;;21.30;99.90;;;;;;5013692;28;20450;-73
2022/06/22 03:58:38;;;;;;;22.00;20.60;;;21.30;99.90;;;;;;5013569;28;20457;-75
2022/06/22 04:01:05;;;;;;;22.00;20.60;;;21.40;99.90;;;;;;5012018;28;20465;-76
2022/06/22 04:03:32;;;;;;;21.47;20.07;;;21.50;99.90;;;;;;5013904;28;20460;-75
2022/06/22 04:06:03;;;;;;;23.00;21.50;;;21.50;99.90;;;;;;5013443;28;20489;-75
2022/06/22 04:08:33;;;;;;;23.40;21.93;;;21.60;99.90;;;;;;5013024;28;20865;-76
2022/06/22 04:11:04;;;;;;;22.97;21.37;;;21.70;99.90;;;;;;5013817;28;20449;-76
2022/06/22 04:13:37;;;;;;;23.47;21.73;;;21.70;99.90;;;;;;5013878;28;20442;-76
2022/06/22 04:16:09;;;;;;;21.93;20.53;;;21.80;99.90;;;;;;5013877;28;20624;-75
2022/06/22 04:18:42;;;;;;;22.20;20.90;;;21.90;99.90;;;;;;5013904;28;20449;-77
2022/06/22 04:21:12;;;;;;;21.27;19.80;;;22.10;99.90;;;;;;5013917;28;20519;-74
2022/06/22 04:23:44;;;;;;;23.33;21.73;;;22.20;99.90;;;;;;5013505;28;20456;-75
2022/06/22 04:26:15;;;;;;;22.80;21.40;;;22.30;99.90;;;;;;5013672;28;20886;-76
2022/06/22 04:28:48;;;;;;;21.10;19.80;;;22.30;99.90;;;;;;5013879;28;20504;-75
2022/06/22 04:31:22;;;;;;;22.00;20.60;;;22.30;99.90;;;;;;5013675;28;20446;-75
2022/06/22 04:33:52;;;;;;;22.50;21.10;;;22.40;99.90;;;;;;5013259;28;21249;-76
2022/06/22 04:36:24;;;;;;;24.63;22.83;;;22.40;99.90;;;;;;5013388;28;20461;-77
2022/06/22 04:38:58;;;;;;;22.47;20.97;;;22.40;99.90;;;;;;5013271;28;20474;-76
2022/06/22 04:41:30;;;;;;;21.50;20.20;;;22.60;99.90;;;;;;5013570;28;20457;-76
2022/06/22 04:44:01;;;;;;;22.67;21.17;;;22.60;99.90;;;;;;5013574;28;20852;-76
2022/06/22 04:46:34;;;;;;;22.87;21.40;;;22.70;99.90;;;;;;5013287;28;20557;-78
2022/06/22 04:49:05;;;;;;;23.20;21.80;;;22.70;99.90;;;;;;5013072;28;20497;-77
2022/06/22 04:51:37;;;;;;;22.97;21.50;;;22.80;99.90;;;;;;5013145;28;20470;-76
2022/06/22 04:54:09;;;;;;;24.97;23.03;;;22.80;99.90;;;;;;5012870;28;20503;-77
2022/06/22 04:56:39;;;;;;;22.70;21.30;;;22.80;99.90;;;;;;5013023;28;20458;-75
2022/06/22 04:59:11;;;;;;;21.50;20.30;;;22.80;99.90;;;;;;5013140;28;20462;-79
2022/06/22 05:01:43;;;;;;;23.23;21.80;;;23.00;99.90;;;;;;5012998;28;20454;-75
2022/06/22 05:04:14;;;;;;;26.13;23.90;;;23.10;99.90;;;;;;5013053;28;20473;-76
2022/06/22 05:06:46;;;;;;;24.03;22.53;;;23.20;99.90;;;;;;5012993;28;20490;-76
2022/06/22 05:09:19;;;;;;;23.70;22.30;;;23.20;99.90;;;;;;5006083;28;20494;-76
2022/06/22 05:11:48;;;;;;;22.93;21.53;;;23.20;99.90;;;;;;4993301;28;20465;-76
2022/06/22 05:14:21;;;;;;;22.77;21.47;;;23.30;99.90;;;;;;4993252;28;20805;-77
2022/06/22 05:16:52;;;;;;;25.40;23.07;;;23.10;99.90;;;;;;4993360;28;20447;-76
2022/06/22 05:19:20;;;;;;;25.37;23.60;;;23.10;99.90;;;;;;4994587;28;20451;-76
2022/06/22 05:21:47;;;;;;;24.30;22.63;;;23.20;99.90;;;;;;4993143;28;20455;-77
2022/06/22 05:24:21;;;;;;;22.90;21.43;;;23.30;99.90;;;;;;4992825;28;20458;-76
2022/06/22 05:26:49;;;;;;;22.93;21.70;;;23.40;99.90;;;;;;4993055;28;20504;-75
2022/06/22 05:29:22;;;;;;;22.83;21.47;;;23.60;99.90;;;;;;4992817;28;20545;-76
2022/06/22 05:31:53;;;;;;;21.33;19.57;;;23.90;99.90;;;;;;4992900;28;20482;-75
2022/06/22 05:34:23;;;;;;;23.73;22.13;;;24.40;99.90;;;;;;4992705;28;20992;-77
2022/06/22 05:36:56;;;;;;;22.83;21.47;;;24.70;99.90;;;;;;4992639;28;20450;-76
2022/06/22 05:39:23;;;;;;;23.33;21.40;;;25.20;99.90;;;;;;4984515;28;20499;-75
2022/06/22 05:41:50;;;;;;;23.00;21.43;;;25.70;99.90;;;;;;4957233;29;20809;-76
2022/06/22 05:44:21;;;;;;;23.97;22.13;;;25.90;99.90;;;;;;4955656;28;20457;-76
2022/06/22 05:46:51;;;;;;;25.00;23.13;;;26.00;99.90;;;;;;4955859;29;20484;-77
2022/06/22 05:49:19;;;;;;;24.10;22.13;;;26.40;99.90;;;;;;4956124;29;20677;-77
2022/06/22 05:51:54;;;;;;;22.93;21.23;;;26.40;99.90;;;;;;4954134;29;20460;-75
2022/06/22 05:54:26;;;;;;;22.23;20.90;;;26.40;99.90;;;;;;4954742;29;20531;-73
2022/06/22 05:57:01;;;;;;;23.00;21.37;;;26.50;99.90;;;;;;4954096;29;20475;-76
2022/06/22 05:59:35;;;;;;;22.00;20.70;;;26.50;99.90;;;;;;4954138;29;20979;-74
2022/06/22 06:02:08;;;;;;;22.40;20.60;;;26.60;99.90;;;;;;4954227;29;20457;-74
2022/06/22 06:04:39;;;;;;;23.27;21.27;;;26.70;99.90;;;;;;4954341;29;20463;-76
2022/06/22 06:07:14;;;;;;;23.10;21.60;;;26.60;99.90;;;;;;4953762;29;21073;-76
2022/06/22 06:09:42;;;;;;;21.73;20.30;;;26.50;99.90;;;;;;4959863;28;20471;-76
2022/06/22 06:12:14;;;;;;;22.10;20.50;;;26.60;99.90;;;;;;4959251;28;20510;-76
2022/06/22 06:14:47;;;;;;;22.60;21.20;;;26.50;99.90;;;;;;4953293;28;20459;-73
2022/06/22 06:17:27;;;;;;;21.40;20.03;;;26.50;99.90;;;;;;4949437;29;20452;-73
2022/06/22 06:19:55;;;;;;;23.63;21.83;;;26.40;99.90;;;;;;4953087;29;20460;-75
2022/06/22 06:22:23;;;;;;;22.93;21.43;;;26.50;99.90;;;;;;4952865;29;20455;-74
2022/06/22 06:27:42;;;;;;;24.63;22.80;;;25.90;99.90;;;;;;4953315;29;20571;-76
2022/06/22 06:30:16;;;;;;;25.80;23.70;;;25.90;99.90;;;;;;4954373;29;20460;-75
2022/06/22 06:32:55;;;;;;;23.93;22.63;;;25.90;99.90;;;;;;4953040;29;21010;-75
2022/06/22 06:35:29;;;;;;;25.43;23.73;;;25.50;99.90;;;;;;4951298;28;20456;-74
2022/06/22 06:38:02;;;;;;;22.90;21.00;;;25.20;99.90;;;;;;4952399;29;20836;-74
2022/06/22 06:40:36;;;;;;;24.77;23.13;;;25.00;99.90;;;;;;4952302;28;20994;-74
2022/06/22 06:43:20;;;;;;;23.60;21.80;;;25.10;99.90;;;;;;4952488;29;20456;-74
2022/06/22 06:45:50;;;;;;;22.70;21.20;;;25.00;99.90;;;;;;4952336;29;20812;-75
2022/06/22 06:48:21;;;;;;;22.20;20.83;;;25.00;99.90;;;;;;4953081;29;20488;-75
2022/06/22 06:50:51;;;;;;;22.57;21.07;;;25.00;99.90;;;;;;4952411;29;20990;-75
2022/06/22 06:53:26;;;;;;;21.17;19.97;;;25.20;99.90;;;;;;4951788;29;20479;-75
2022/06/22 06:55:59;;;;;;;24.90;23.47;;;25.40;99.90;;;;;;4951688;28;21031;-74
2022/06/22 06:58:33;;;;;;;29.87;27.60;;;25.30;99.90;;;;;;4952296;29;20452;-71
2022/06/22 07:01:01;;;;;;;30.30;28.47;;;25.10;99.90;;;;;;4952035;29;20534;-72
2022/06/22 07:03:31;;;;;;;31.80;30.10;;;24.60;99.90;;;;;;4952309;29;20783;-73
2022/06/22 07:05:58;;;;;;;33.63;31.33;;;24.30;99.90;;;;;;4952133;29;20875;-73
2022/06/22 07:08:35;;;;;;;31.53;29.60;;;24.00;99.90;;;;;;4952063;29;20485;-72
2022/06/22 07:11:08;;;;;;;32.53;30.20;;;23.80;99.90;;;;;;4951810;29;20467;-72
2022/06/22 07:13:40;;;;;;;36.30;33.00;;;23.40;99.90;;;;;;4951769;29;20531;-72
2022/06/22 07:16:14;;;;;;;33.77;31.67;;;23.30;99.90;;;;;;4951904;29;20456;-71
2022/06/22 07:18:43;;;;;;;35.27;33.20;;;22.90;99.90;;;;;;4952055;29;20495;-72
2022/06/22 07:21:17;;;;;;;37.83;34.83;;;22.60;99.90;;;;;;4952057;29;20457;-71
2022/06/22 07:23:50;;;;;;;37.27;34.80;;;22.20;99.90;;;;;;4951978;29;20453;-71
2022/06/22 07:26:27;;;;;;;41.13;37.93;;;22.00;99.90;;;;;;4951860;29;20448;-71
2022/06/22 07:29:00;;;;;;;38.93;36.43;;;21.80;99.90;;;;;;4951933;29;20826;-70
2022/06/22 07:31:35;;;;;;;41.50;38.70;;;21.70;99.90;;;;;;4951864;29;20457;-72
2022/06/22 07:34:05;;;;;;;39.90;37.40;;;21.60;99.90;;;;;;4951700;29;20456;-71
2022/06/22 07:36:37;;;;;;;42.10;39.30;;;21.50;99.90;;;;;;4951664;29;20457;-71
2022/06/22 07:39:11;;;;;;;38.87;36.57;;;21.60;99.90;;;;;;4951390;28;20480;-71
2022/06/22 07:41:38;;;;;;;37.03;34.97;;;21.50;99.90;;;;;;4951330;29;20977;-71
2022/06/22 07:44:13;;;;;;;35.57;33.17;;;21.30;99.90;;;;;;4951252;29;20456;-71
2022/06/22 07:46:46;;;;;;;35.00;32.80;;;21.30;99.90;;;;;;4951725;29;20459;-71
2022/06/22 07:49:17;;;;;;;29.90;28.10;;;21.40;99.90;;;;;;4951758;29;20456;-70
2022/06/22 07:51:48;;;;;;;25.97;24.17;;;21.30;99.90;;;;;;4951525;29;20459;-70
2022/06/22 07:54:20;;;;;;;26.43;24.80;;;21.30;99.90;;;;;;4951515;28;20943;-71
2022/06/22 07:57:05;;;;;;;25.97;24.17;;;21.40;99.90;;;;;;4951679;29;20459;-72
2022/06/22 07:59:38;;;;;;;25.90;24.10;;;21.80;99.90;;;;;;4951394;29;20459;-71
2022/06/22 08:02:13;;;;;;;24.23;22.67;;;22.10;99.90;;;;;;4951322;29;20516;-72
2022/06/22 08:04:45;;;;;;;23.37;22.13;;;22.30;99.90;;;;;;4951713;29;20463;-74
2022/06/22 08:07:16;;;;;;;23.20;22.00;;;22.70;99.90;;;;;;4952237;28;20587;-73
2022/06/22 08:09:48;;;;;;;23.30;21.90;;;23.00;99.90;;;;;;4955207;29;20808;-74
2022/06/22 08:12:20;;;;;;;20.63;19.53;;;23.40;99.90;;;;;;4955143;29;20479;-72
2022/06/22 08:14:49;;;;;;;22.60;21.30;;;23.70;99.90;;;;;;4955000;29;20505;-74
2022/06/22 08:17:25;;;;;;;20.20;19.00;;;24.10;99.90;;;;;;4954598;29;20881;-73
2022/06/22 08:19:52;;;;;;;21.57;20.33;;;24.40;99.90;;;;;;4954802;29;21067;-73
2022/06/22 08:22:19;;;;;;;19.60;18.63;;;25.00;99.90;;;;;;4954875;29;20923;-73
2022/06/22 08:24:50;;;;;;;20.67;19.37;;;25.50;99.90;;;;;;4954338;29;20456;-73
2022/06/22 08:27:20;;;;;;;21.40;20.03;;;25.70;99.90;;;;;;4954457;29;20575;-73
2022/06/22 08:29:51;;;;;;;18.50;17.40;;;25.80;99.90;;;;;;4954682;29;20452;-75
2022/06/22 08:32:24;;;;;;;19.87;18.73;;;25.70;99.90;;;;;;4954697;29;20809;-74
2022/06/22 08:34:54;;;;;;;18.80;17.90;;;25.70;99.90;;;;;;4954393;29;20934;-73
2022/06/22 08:37:28;;;;;;;21.00;19.80;;;25.80;99.90;;;;;;4954546;29;20452;-73
2022/06/22 08:40:00;;;;;;;19.47;18.37;;;25.60;99.90;;;;;;4954603;28;21029;-73
2022/06/22 08:42:41;;;;;;;20.27;19.07;;;25.70;99.90;;;;;;4954869;28;20459;-72
2022/06/22 08:45:38;;;;;;;19.30;18.10;;;25.40;99.90;;;;;;4954344;29;20453;-72
2022/06/22 08:48:35;;;;;;;20.30;19.10;;;25.50;99.90;;;;;;4953744;29;20480;-73
2022/06/22 08:51:21;;;;;;;20.43;19.10;;;25.40;99.90;;;;;;4954253;29;20943;-73
2022/06/22 08:54:03;;;;;;;20.17;18.47;;;25.50;99.90;;;;;;4954465;28;20533;-73
2022/06/22 08:56:40;;;;;;;22.07;20.63;;;25.40;99.90;;;;;;4954342;29;20453;-72
2022/06/22 08:59:39;;;;;;;20.97;19.63;;;25.30;99.90;;;;;;4954099;29;20519;-72
2022/06/22 09:02:29;;;;;;;21.20;19.93;;;25.30;99.90;;;;;;4944404;29;20515;-73
2022/06/22 09:05:21;;;;;;;20.67;19.57;;;25.30;99.90;;;;;;4954575;29;20821;-73
2022/06/22 09:08:14;;;;;;;18.50;17.23;;;25.50;99.90;;;;;;4956190;28;21061;-71
2022/06/22 09:10:48;;;;;;;20.47;19.27;;;25.70;99.90;;;;;;4954437;29;20872;-73
2022/06/22 09:13:33;;;;;;;19.43;18.43;;;25.80;99.90;;;;;;4953937;29;20942;-72
2022/06/22 09:16:08;;;;;;;19.63;18.30;;;26.10;99.90;;;;;;4954361;29;20461;-72
2022/06/22 09:19:00;;;;;;;19.60;18.50;;;26.10;99.90;;;;;;4953285;28;20451;-73
2022/06/22 09:21:38;;;;;;;18.80;17.70;;;26.30;99.90;;;;;;4954053;29;20457;-73
2022/06/22 09:24:15;;;;;;;19.63;18.53;;;26.20;99.90;;;;;;4954035;28;20859;-73
2022/06/22 09:26:55;;;;;;;20.83;19.43;;;26.40;99.90;;;;;;4954210;29;20973;-73
2022/06/22 09:29:34;;;;;;;20.30;18.90;;;26.70;99.90;;;;;;4953923;29;20575;-73
2022/06/22 09:32:20;;;;;;;20.33;18.80;;;26.80;99.90;;;;;;4953871;28;20456;-72
2022/06/22 09:35:02;;;;;;;20.27;19.27;;;26.80;99.90;;;;;;4953903;29;20464;-73
2022/06/22 09:38:01;;;;;;;19.90;18.70;;;26.50;99.90;;;;;;4953802;29;20968;-73
2022/06/22 09:40:38;;;;;;;20.97;19.47;;;26.20;99.90;;;;;;4953238;28;21077;-73
2022/06/22 09:44:00;;;;;;;19.43;18.43;;;26.30;99.90;;;;;;4953609;29;20455;-72
2022/06/22 09:46:44;;;;;;;19.03;18.03;;;26.40;99.90;;;;;;4951986;28;20467;-72
2022/06/22 09:49:36;;;;;;;19.50;18.20;;;26.50;99.90;;;;;;4953738;29;20496;-74
2022/06/22 09:52:30;;;;;;;19.67;18.67;;;26.60;99.90;;;;;;4953546;29;20496;-73
2022/06/22 09:58:47;;;;;;;19.90;18.47;;;26.80;99.90;;;;;;4894303;29;20466;-73
2022/06/22 10:01:26;;;;;;;23.70;21.03;;;26.60;99.90;;;;;;4948646;29;20828;-73
2022/06/22 10:04:42;;;;;;;20.77;19.10;;;26.50;99.90;;;;;;4953155;29;20448;-73
2022/06/22 10:07:25;;;;;;;21.43;19.90;;;26.60;99.90;;;;;;4953320;29;20519;-73
2022/06/22 10:10:13;;;;;;;22.87;21.27;;;26.40;99.90;;;;;;4953234;29;20962;-72
2022/06/22 10:13:15;;;;;;;19.83;18.30;;;26.00;99.90;;;;;;4953602;29;20452;-73
2022/06/22 10:16:06;;;;;;;20.57;19.27;;;26.00;99.90;;;;;;4953185;28;20841;-73
2022/06/22 10:18:45;;;;;;;20.03;18.83;;;26.10;99.90;;;;;;4952935;29;20451;-73
2022/06/22 10:21:22;;;;;;;21.43;19.80;;;26.20;99.90;;;;;;4952972;29;20456;-74
2022/06/22 10:24:11;;;;;;;19.37;18.10;;;26.00;99.90;;;;;;4952740;29;20559;-74
2022/06/22 10:26:50;;;;;;;20.50;19.30;;;25.90;99.90;;;;;;4952679;29;20449;-74
2022/06/22 10:29:51;;;;;;;20.97;19.50;;;25.90;99.90;;;;;;4952565;29;20496;-73
2022/06/22 10:32:47;;;;;;;19.60;18.17;;;25.60;99.90;;;;;;4938768;29;20468;-72
2022/06/22 10:35:33;;;;;;;19.70;18.30;;;25.60;99.90;;;;;;4950534;28;20459;-72
2022/06/22 10:38:19;;;;;;;24.27;22.90;;;25.70;99.90;;;;;;4952563;29;20456;-73
2022/06/22 10:46:47;;;;;;;28.50;26.60;;;23.90;99.90;;;;;;4972141;28;20434;-71
2022/06/22 10:49:40;;;;;;;30.30;28.40;;;23.60;99.90;;;;;;4979698;28;20558;-71
2022/06/22 10:52:18;;;;;;;27.93;26.33;;;23.40;99.90;;;;;;4991202;28;20481;-71
2022/06/22 10:55:03;;;;;;;34.23;31.97;;;23.10;99.90;;;;;;4991336;28;20478;-71
2022/06/22 10:57:54;;;;;;;39.13;36.67;;;22.70;99.90;;;;;;4991058;28;20839;-71
2022/06/22 11:00:35;;;;;;;37.53;35.10;;;22.40;99.90;;;;;;4991167;28;20949;-72
2022/06/22 11:03:37;;;;;;;37.10;34.70;;;22.10;99.90;;;;;;4990955;28;20941;-71
2022/06/22 11:06:34;;;;;;;38.23;35.80;;;21.80;99.90;;;;;;4991192;28;20465;-71
2022/06/22 11:09:31;;;;;;;40.57;38.13;;;21.80;99.90;;;;;;4971069;28;20493;-71
2022/06/22 11:12:20;;;;;;;39.97;37.10;;;21.80;99.90;;;;;;4982975;28;20470;-70
2022/06/22 11:15:28;;;;;;;36.83;34.53;;;21.80;99.90;;;;;;4980980;28;20456;-69
2022/06/22 11:18:17;;;;;;;40.30;37.80;;;21.80;99.90;;;;;;4971797;28;20450;-71
2022/06/22 11:20:54;;;;;;;40.13;37.60;;;22.10;99.90;;;;;;4971551;28;20451;-70
2022/06/22 11:23:36;;;;;;;41.00;38.40;;;22.00;99.90;;;;;;4971370;28;20458;-71
2022/06/22 11:32:46;;;;;;;27.27;25.37;;;22.00;99.90;;;;;;4971780;28;20515;-70
2022/06/22 11:35:35;;;;;;;24.13;22.53;;;22.10;99.90;;;;;;4964756;28;20946;-71
2022/06/22 11:38:21;;;;;;;23.37;21.97;;;22.10;99.90;;;;;;4971297;28;20472;-71
2022/06/22 11:41:09;;;;;;;23.40;21.83;;;22.20;99.90;;;;;;4975664;28;20811;-71
2022/06/22 11:44:13;;;;;;;22.60;21.20;;;22.60;99.90;;;;;;4993705;28;20443;-72
2022/06/22 11:46:44;;;;;;;23.60;21.87;;;23.00;99.90;;;;;;4994980;28;20446;-71
2022/06/22 11:49:36;;;;;;;22.80;21.27;;;23.30;99.90;;;;;;4994837;28;20588;-71
2022/06/22 11:52:55;;;;;;;21.27;19.77;;;23.60;99.90;;;;;;4978364;28;20834;-72
2022/06/22 11:55:26;;;;;;;21.53;20.43;;;23.90;99.90;;;;;;4992966;28;20455;-72
2022/06/22 11:58:19;;;;;;;20.97;19.67;;;24.20;99.90;;;;;;4994403;28;20462;-72
2022/06/22 12:00:56;;;;;;;23.00;21.70;;;24.50;99.90;;;;;;4994332;28;20880;-72
2022/06/22 12:03:50;;;;;;;21.47;20.17;;;24.70;99.90;;;;;;4994221;28;20455;-73
2022/06/22 12:06:38;;;;;;;22.10;20.90;;;24.90;99.90;;;;;;4994131;28;20453;-72
2022/06/22 12:09:31;;;;;;;23.60;22.40;;;25.00;99.90;;;;;;4994103;28;20864;-72
2022/06/22 12:12:19;;;;;;;24.10;22.60;;;24.70;99.90;;;;;;4994269;28;20458;-72
2022/06/22 12:15:09;;;;;;;23.60;22.30;;;24.80;99.90;;;;;;4993835;28;20453;-72
2022/06/22 12:17:57;;;;;;;25.87;23.40;;;25.00;99.90;;;;;;4993990;28;20457;-72
2022/06/22 12:20:47;;;;;;;23.83;22.43;;;24.80;99.90;;;;;;4994242;28;20458;-72
2022/06/22 12:23:31;;;;;;;23.50;21.60;;;24.70;99.90;;;;;;4993938;28;21221;-72
2022/06/22 12:26:18;;;;;;;23.30;21.73;;;24.80;99.90;;;;;;4994067;28;20794;-71
2022/06/22 12:29:01;;;;;;;23.00;21.47;;;24.90;99.90;;;;;;4993651;28;20517;-71
2022/06/22 12:31:35;;;;;;;23.97;22.33;;;25.40;99.90;;;;;;4993899;28;20461;-72
2022/06/22 12:34:13;;;;;;;20.70;19.43;;;25.60;99.90;;;;;;4993475;28;20454;-72
2022/06/22 12:36:44;;;;;;;22.17;20.97;;;25.70;99.90;;;;;;4993588;28;20455;-73
2022/06/22 12:39:19;;;;;;;23.33;21.30;;;25.50;99.90;;;;;;4993409;28;20478;-72
2022/06/22 12:42:00;;;;;;;22.50;20.87;;;25.90;99.90;;;;;;4993422;28;20457;-71
2022/06/22 12:44:56;;;;;;;22.30;21.10;;;26.10;99.90;;;;;;4993954;28;20454;-72
2022/06/22 12:47:40;;;;;;;21.17;19.73;;;26.20;99.90;;;;;;4993692;28;20509;-73
2022/06/22 12:50:45;;;;;;;18.97;17.77;;;26.30;99.90;;;;;;4993467;28;20485;-72
2022/06/22 12:53:19;;;;;;;18.00;16.80;;;26.20;99.90;;;;;;4993382;28;20454;-71
2022/06/22 12:55:52;;;;;;;16.67;15.63;;;26.10;99.90;;;;;;4992533;28;20451;-72
2022/06/22 12:58:26;;;;;;;18.07;16.87;;;26.00;99.90;;;;;;4993362;28;20442;-72
2022/06/22 13:00:56;;;;;;;17.97;16.50;;;25.80;99.90;;;;;;4993276;28;20494;-71
2022/06/22 13:03:26;;;;;;;18.30;17.30;;;25.30;99.90;;;;;;4993358;28;20457;-71
2022/06/22 13:05:53;;;;;;;18.87;17.50;;;24.90;99.90;;;;;;4993637;28;20546;-70
2022/06/22 13:08:24;;;;;;;19.67;17.80;;;24.80;99.90;;;;;;4993008;28;20494;-71
2022/06/22 13:10:57;;;;;;;20.40;18.80;;;24.60;99.90;;;;;;4993184;28;20517;-71
2022/06/22 13:13:29;;;;;;;19.00;17.90;;;24.40;99.90;;;;;;4992240;28;20987;-71
2022/06/22 13:16:00;;;;;;;20.70;18.90;;;24.30;99.90;;;;;;4993278;28;20513;-72
2022/06/22 13:18:34;;;;;;;21.00;19.37;;;24.30;99.90;;;;;;4993139;28;20451;-72
2022/06/22 13:21:06;;;;;;;22.77;21.30;;;24.40;99.90;;;;;;4992915;28;20513;-72
2022/06/22 13:23:45;;;;;;;23.83;22.07;;;24.30;99.90;;;;;;4992761;28;20517;-73
2022/06/22 13:26:27;;;;;;;25.13;23.10;;;24.40;99.90;;;;;;4992855;28;20451;-73
2022/06/22 13:29:03;;;;;;;25.33;23.63;;;24.40;99.90;;;;;;4992779;28;20487;-73
2022/06/22 13:31:33;;;;;;;23.83;21.93;;;24.50;99.90;;;;;;4992592;28;20951;-73
2022/06/22 13:34:05;;;;;;;22.83;21.33;;;24.40;99.90;;;;;;4992855;28;20800;-71
2022/06/22 13:36:38;;;;;;;23.43;21.77;;;24.20;99.90;;;;;;4992296;28;20836;-73
2022/06/22 13:39:20;;;;;;;23.83;22.30;;;24.10;99.90;;;;;;4992344;28;21175;-72
2022/06/22 13:42:03;;;;;;;21.30;19.50;;;24.10;99.90;;;;;;4992414;28;20526;-73
2022/06/22 13:44:49;;;;;;;18.77;16.80;;;24.00;99.90;;;;;;4992352;28;20505;-73
2022/06/22 13:47:34;;;;;;;17.23;15.93;;;24.20;99.90;;;;;;4992492;28;20450;-71
2022/06/22 13:50:20;;;;;;;18.70;17.10;;;24.40;99.90;;;;;;4992176;28;20491;-73
2022/06/22 13:52:50;;;;;;;17.20;15.90;;;24.70;99.90;;;;;;4992140;28;20553;-73
2022/06/22 13:55:42;;;;;;;18.17;16.67;;;25.20;99.90;;;;;;4992171;28;20542;-73
2022/06/22 13:58:17;;;;;;;17.47;16.10;;;25.90;99.90;;;;;;4992451;28;20458;-72
2022/06/22 14:00:55;;;;;;;18.37;16.87;;;26.30;99.90;;;;;;4992244;28;20450;-74
2022/06/22 14:03:31;;;;;;;18.20;16.57;;;26.70;99.90;;;;;;4991969;28;20881;-72
2022/06/22 14:06:01;;;;;;;17.40;15.87;;;27.10;99.90;;;;;;4991748;28;20478;-72
2022/06/22 14:08:53;;;;;;;17.50;16.20;;;27.30;99.90;;;;;;4991664;28;20466;-73
2022/06/22 14:11:31;;;;;;;17.10;15.83;;;27.80;99.90;;;;;;4985559;28;20566;-72
2022/06/22 14:14:05;;;;;;;17.60;16.50;;;27.80;99.90;;;;;;4991717;28;20466;-72
2022/06/22 14:16:43;;;;;;;16.83;15.37;;;28.10;99.90;;;;;;4991533;28;20458;-73
2022/06/22 14:19:17;;;;;;;18.70;17.10;;;28.50;99.90;;;;;;4991810;28;20454;-72
2022/06/22 14:21:48;;;;;;;15.70;14.60;;;28.20;99.90;;;;;;4991560;28;20486;-72
2022/06/22 14:24:19;;;;;;;15.87;14.80;;;28.30;99.90;;;;;;4991894;28;20469;-73
2022/06/22 14:27:17;;;;;;;16.63;15.03;;;28.20;99.90;;;;;;4991331;28;20455;-73
2022/06/22 14:29:59;;;;;;;16.97;15.50;;;28.10;99.90;;;;;;4991222;28;20497;-73
2022/06/22 14:32:36;;;;;;;16.40;15.30;;;28.50;99.90;;;;;;4991568;28;20450;-72
2022/06/22 14:35:25;;;;;;;18.17;16.40;;;28.80;99.90;;;;;;4991476;28;20827;-72
2022/06/22 14:38:01;;;;;;;19.13;15.57;;;28.80;99.90;;;;;;4991145;28;20475;-74
2022/06/22 14:40:34;;;;;;;15.90;14.50;;;28.90;98.70;;;;;;4991315;28;20831;-73
2022/06/22 14:43:12;;;;;;;18.47;16.27;;;28.80;99.10;;;;;;4991255;28;20451;-73
2022/06/22 14:45:45;;;;;;;16.83;15.80;;;28.60;99.20;;;;;;4991080;28;20454;-73
2022/06/22 14:48:21;;;;;;;16.47;15.10;;;27.80;99.90;;;;;;4991274;28;20455;-74
2022/06/22 14:50:56;;;;;;;17.50;15.90;;;27.80;99.90;;;;;;4990834;28;20486;-74
2022/06/22 14:53:38;;;;;;;17.57;15.93;;;27.80;99.90;;;;;;4991078;28;20454;-73
2022/06/22 14:56:12;;;;;;;16.63;15.10;;;27.80;99.90;;;;;;4991087;28;20451;-73
2022/06/22 14:58:45;;;;;;;17.57;16.07;;;27.30;99.90;;;;;;4991212;28;20454;-74
2022/06/22 15:01:18;;;;;;;16.23;14.67;;;27.20;99.90;;;;;;4989937;28;20912;-73
2022/06/22 15:03:49;;;;;;;15.30;14.10;;;27.00;99.90;;;;;;4991110;28;20459;-74
2022/06/22 15:06:40;;;;;;;17.93;15.73;;;27.00;99.90;;;;;;4990736;28;20470;-72
2022/06/22 15:09:14;;;;;;;18.20;16.33;;;26.90;99.90;;;;;;4990758;28;20494;-73
2022/06/22 15:14:38;;;;;;;16.63;15.00;;;27.20;99.90;;;;;;4990856;28;20823;-72
2022/06/22 15:17:15;;;;;;;19.93;14.87;;;27.10;99.90;;;;;;4990078;28;20586;-72
2022/06/22 15:19:48;;;;;;;16.63;15.50;;;26.80;99.90;;;;;;4991078;28;20791;-73
2022/06/22 15:22:22;;;;;;;16.03;14.83;;;26.90;99.90;;;;;;4990588;28;20467;-73
2022/06/22 15:25:09;;;;;;;17.50;15.83;;;26.40;99.90;;;;;;4988670;28;20459;-73
2022/06/22 15:27:40;;;;;;;17.30;15.50;;;26.10;99.90;;;;;;4991376;28;20462;-72
2022/06/22 15:30:19;;;;;;;17.73;15.90;;;26.10;99.90;;;;;;4994243;28;20493;-73
2022/06/22 15:32:59;;;;;;;16.83;15.10;;;25.80;99.90;;;;;;4990040;28;20478;-72
2022/06/22 15:35:36;;;;;;;17.37;14.50;;;25.80;99.90;;;;;;4990269;28;20484;-73
2022/06/22 15:38:13;;;;;;;18.20;16.53;;;25.90;99.90;;;;;;4989843;28;20537;-72
2022/06/22 15:40:52;;;;;;;17.10;15.90;;;25.90;99.90;;;;;;4989903;28;20490;-73
2022/06/22 15:43:25;;;;;;;16.13;14.83;;;25.90;99.90;;;;;;4989772;28;20701;-74
2022/06/22 15:46:01;;;;;;;19.73;16.53;;;26.10;99.90;;;;;;4989825;28;20470;-74
2022/06/22 15:48:36;;;;;;;17.87;16.07;;;25.90;99.90;;;;;;4989654;28;20824;-74
2022/06/22 15:51:09;;;;;;;17.23;15.67;;;26.20;99.90;;;;;;4989643;28;20501;-74
2022/06/22 15:53:44;;;;;;;16.77;15.27;;;26.30;99.90;;;;;;4989893;28;20839;-73
2022/06/22 15:56:25;;;;;;;17.40;15.80;;;26.40;99.90;;;;;;4990329;28;20454;-73
2022/06/22 15:58:59;;;;;;;17.53;15.77;;;26.60;99.90;;;;;;4989820;28;20458;-73
2022/06/22 16:01:33;;;;;;;19.40;16.60;;;26.90;99.90;;;;;;4989941;28;20450;-73
2022/06/22 16:04:13;;;;;;;16.50;14.87;;;27.00;99.90;;;;;;4989744;28;20490;-73
2022/06/22 16:06:50;;;;;;;17.47;15.90;;;26.70;99.90;;;;;;4989743;28;21017;-72
2022/06/22 16:09:22;;;;;;;17.87;16.63;;;26.40;99.90;;;;;;4989507;28;20498;-72
2022/06/22 16:14:46;;;;;;;18.20;16.80;;;26.00;99.90;;;;;;4989925;28;20511;-72
2022/06/22 16:17:20;;;;;;;16.17;14.70;;;25.60;99.90;;;;;;4989520;28;20455;-72
2022/06/22 16:19:54;;;;;;;15.83;14.20;;;25.30;99.90;;;;;;4989327;28;20702;-72
2022/06/22 16:22:26;;;;;;;16.63;15.40;;;25.10;99.90;;;;;;4989338;28;20940;-72
2022/06/22 16:25:00;;;;;;;19.70;15.50;;;24.90;99.90;;;;;;4989456;28;20509;-73
2022/06/22 16:27:30;;;;;;;15.93;14.60;;;24.80;99.90;;;;;;4989451;28;20481;-72
2022/06/22 16:29:58;;;;;;;17.50;15.73;;;24.80;99.90;;;;;;4992683;28;20532;-72
2022/06/22 16:32:34;;;;;;;15.20;13.87;;;24.70;99.90;;;;;;4993042;28;20957;-72
2022/06/22 16:35:12;;;;;;;15.80;14.20;;;24.60;99.90;;;;;;4992829;28;20591;-72
2022/06/22 16:37:46;;;;;;;15.70;14.60;;;24.40;99.90;;;;;;4992953;28;20458;-73
2022/06/22 16:40:22;;;;;;;14.70;12.90;;;24.30;99.90;;;;;;4992743;28;20479;-73
2022/06/22 16:43:04;;;;;;;14.90;13.77;;;24.20;99.90;;;;;;4987729;28;20478;-72
2022/06/22 16:45:36;;;;;;;15.33;14.40;;;24.10;99.90;;;;;;4982071;28;20467;-72
2022/06/22 16:48:13;;;;;;;15.60;14.50;;;24.10;99.90;;;;;;4987302;28;20446;-73
2022/06/22 16:50:47;;;;;;;16.30;14.67;;;23.90;99.90;;;;;;4992129;28;20490;-72
2022/06/22 16:53:24;;;;;;;15.47;14.47;;;23.90;99.90;;;;;;4973378;28;20456;-73
2022/06/22 16:55:54;;;;;;;14.80;13.77;;;23.80;99.90;;;;;;4973281;28;20463;-72
2022/06/22 16:58:24;;;;;;;15.90;14.77;;;23.80;99.90;;;;;;4973118;28;20538;-72
2022/06/22 17:00:55;;;;;;;16.87;15.40;;;23.80;99.90;;;;;;4986724;28;20504;-72
2022/06/22 17:03:25;;;;;;;19.00;17.83;;;23.80;99.90;;;;;;4992644;28;20512;-71
2022/06/22 17:06:04;;;;;;;23.60;22.10;;;23.80;99.90;;;;;;4992390;28;20505;-70
2022/06/22 17:08:38;;;;;;;28.73;26.57;;;23.50;99.90;;;;;;4992698;28;20839;-70
2022/06/22 17:11:08;;;;;;;30.90;28.20;;;23.10;99.90;;;;;;4992394;28;21170;-73
2022/06/22 17:13:37;;;;;;;31.00;29.10;;;22.70;99.90;;;;;;4992406;28;20491;-71
2022/06/22 17:16:12;;;;;;;31.63;29.30;;;22.60;99.90;;;;;;4992349;28;20458;-72
2022/06/22 17:18:52;;;;;;;37.20;34.50;;;22.40;99.90;;;;;;4973003;28;20463;-72
2022/06/22 17:21:32;;;;;;;35.80;33.20;;;22.10;99.90;;;;;;4972331;28;20459;-74
2022/06/22 17:24:16;;;;;;;38.37;35.33;;;22.00;99.90;;;;;;4972924;28;20518;-72